sensor_id;sensor_type;location;lat;lon;timestamp;pressure;altitude;pressure_sealevel;temperature;humidity
59493;BME280;45497;43.996;22.876;2022-10-16T00:00:27;102028.81;;;12.58;49.32
59493;BME280;45497;43.996;22.876;2022-10-16T00:02:53;102036.97;;;12.57;49.23
59493;BME280;45497;43.996;22.876;2022-10-16T00:10:26;102040.81;;;12.45;49.48
59493;BME280;45497;43.996;22.876;2022-10-16T00:14:42;102031.31;;;12.42;49.63
59493;BME280;45497;43.996;22.876;2022-10-16T00:17:09;102029.78;;;12.39;49.51
59493;BME280;45497;43.996;22.876;2022-10-16T00:19:34;102035.00;;;12.31;49.68
59493;BME280;45497;43.996;22.876;2022-10-16T00:22:00;102035.16;;;12.30;49.68
59493;BME280;45497;43.996;22.876;2022-10-16T00:24:25;102030.16;;;12.27;49.86
59493;BME280;45497;43.996;22.876;2022-10-16T00:28:27;102017.59;;;12.19;49.62
59493;BME280;45497;43.996;22.876;2022-10-16T00:30:53;102013.41;;;12.16;50.17
59493;BME280;45497;43.996;22.876;2022-10-16T00:33:18;102005.88;;;12.12;50.13
59493;BME280;45497;43.996;22.876;2022-10-16T00:35:44;102012.72;;;12.14;50.13
59493;BME280;45497;43.996;22.876;2022-10-16T00:40:56;102011.34;;;12.10;50.11
59493;BME280;45497;43.996;22.876;2022-10-16T00:47:26;102006.34;;;12.07;50.35
59493;BME280;45497;43.996;22.876;2022-10-16T00:51:24;102005.19;;;12.10;50.19
59493;BME280;45497;43.996;22.876;2022-10-16T00:53:51;102015.66;;;12.11;50.27
59493;BME280;45497;43.996;22.876;2022-10-16T00:58:31;102028.00;;;12.12;50.46
59493;BME280;45497;43.996;22.876;2022-10-16T01:05:50;102033.75;;;12.08;50.80
59493;BME280;45497;43.996;22.876;2022-10-16T01:08:34;102031.75;;;12.10;50.67
59493;BME280;45497;43.996;22.876;2022-10-16T01:11:25;102031.38;;;12.04;50.55
59493;BME280;45497;43.996;22.876;2022-10-16T01:13:58;102033.19;;;12.04;50.53
59493;BME280;45497;43.996;22.876;2022-10-16T01:16:44;102037.00;;;12.01;50.62
59493;BME280;45497;43.996;22.876;2022-10-16T01:22:06;102038.97;;;11.90;50.63
59493;BME280;45497;43.996;22.876;2022-10-16T01:25:05;102039.25;;;11.86;50.64
59493;BME280;45497;43.996;22.876;2022-10-16T01:27:35;102047.13;;;11.78;50.64
59493;BME280;45497;43.996;22.876;2022-10-16T01:30:10;102056.22;;;11.76;50.63
59493;BME280;45497;43.996;22.876;2022-10-16T01:32:43;102047.00;;;11.70;50.82
59493;BME280;45497;43.996;22.876;2022-10-16T01:37:47;102054.41;;;11.66;51.02
59493;BME280;45497;43.996;22.876;2022-10-16T01:40:17;102069.66;;;11.64;50.97
59493;BME280;45497;43.996;22.876;2022-10-16T01:42:47;102065.47;;;11.62;51.06
59493;BME280;45497;43.996;22.876;2022-10-16T01:45:15;102055.97;;;11.59;50.85
59493;BME280;45497;43.996;22.876;2022-10-16T01:51:03;102073.03;;;11.57;50.97
59493;BME280;45497;43.996;22.876;2022-10-16T01:55:58;102068.31;;;11.51;50.90
59493;BME280;45497;43.996;22.876;2022-10-16T01:58:25;102083.38;;;11.50;51.00
59493;BME280;45497;43.996;22.876;2022-10-16T02:00:53;102071.78;;;11.51;51.20
59493;BME280;45497;43.996;22.876;2022-10-16T02:03:20;102073.75;;;11.49;51.00
59493;BME280;45497;43.996;22.876;2022-10-16T02:05:53;102074.03;;;11.46;51.12
59493;BME280;45497;43.996;22.876;2022-10-16T02:10:03;102076.28;;;11.41;50.90
59493;BME280;45497;43.996;22.876;2022-10-16T02:12:36;102085.25;;;11.40;51.16
59493;BME280;45497;43.996;22.876;2022-10-16T02:15:05;102078.09;;;11.40;51.16
59493;BME280;45497;43.996;22.876;2022-10-16T02:17:32;102084.69;;;11.36;51.07
59493;BME280;45497;43.996;22.876;2022-10-16T02:21:10;102082.16;;;11.35;51.24
59493;BME280;45497;43.996;22.876;2022-10-16T02:24:06;102098.09;;;11.35;51.30
59493;BME280;45497;43.996;22.876;2022-10-16T02:26:53;102095.03;;;11.29;51.11
59493;BME280;45497;43.996;22.876;2022-10-16T02:29:24;102104.09;;;11.27;51.11
59493;BME280;45497;43.996;22.876;2022-10-16T02:34:14;102105.22;;;11.24;51.08
59493;BME280;45497;43.996;22.876;2022-10-16T02:36:42;102103.53;;;11.14;50.98
59493;BME280;45497;43.996;22.876;2022-10-16T02:39:09;102109.81;;;11.13;51.15
59493;BME280;45497;43.996;22.876;2022-10-16T02:41:36;102106.59;;;11.09;51.25
59493;BME280;45497;43.996;22.876;2022-10-16T02:44:01;102111.22;;;11.07;51.28
59493;BME280;45497;43.996;22.876;2022-10-16T02:46:27;102113.03;;;11.06;51.24
59493;BME280;45497;43.996;22.876;2022-10-16T02:48:52;102104.66;;;11.01;51.64
59493;BME280;45497;43.996;22.876;2022-10-16T02:51:18;102109.69;;;11.04;51.61
59493;BME280;45497;43.996;22.876;2022-10-16T02:53:43;102111.63;;;11.02;51.36
59493;BME280;45497;43.996;22.876;2022-10-16T02:56:09;102109.94;;;11.01;51.27
59493;BME280;45497;43.996;22.876;2022-10-16T02:58:34;102118.75;;;11.02;51.28
59493;BME280;45497;43.996;22.876;2022-10-16T03:02:02;102109.25;;;10.99;51.31
59493;BME280;45497;43.996;22.876;2022-10-16T03:04:28;102108.69;;;10.96;51.18
59493;BME280;45497;43.996;22.876;2022-10-16T03:06:53;102114.41;;;10.91;51.69
59493;BME280;45497;43.996;22.876;2022-10-16T03:10:24;102104.63;;;10.82;51.69
59493;BME280;45497;43.996;22.876;2022-10-16T03:12:49;102110.06;;;10.80;51.87
59493;BME280;45497;43.996;22.876;2022-10-16T03:15:15;102109.22;;;10.80;51.66
59493;BME280;45497;43.996;22.876;2022-10-16T03:18:40;102120.81;;;10.79;52.01
59493;BME280;45497;43.996;22.876;2022-10-16T03:21:05;102124.19;;;10.81;51.97
59493;BME280;45497;43.996;22.876;2022-10-16T03:25:38;102127.09;;;10.78;51.98
59493;BME280;45497;43.996;22.876;2022-10-16T03:28:03;102125.84;;;10.72;52.08
59493;BME280;45497;43.996;22.876;2022-10-16T03:30:29;102125.84;;;10.72;52.17
59493;BME280;45497;43.996;22.876;2022-10-16T03:32:55;102129.31;;;10.73;52.52
59493;BME280;45497;43.996;22.876;2022-10-16T03:35:21;102135.31;;;10.75;52.14
59493;BME280;45497;43.996;22.876;2022-10-16T03:37:47;102137.13;;;10.74;52.33
59493;BME280;45497;43.996;22.876;2022-10-16T03:42:27;102142.44;;;10.74;52.31
59493;BME280;45497;43.996;22.876;2022-10-16T03:44:53;102151.94;;;10.77;52.24
59493;BME280;45497;43.996;22.876;2022-10-16T03:48:27;102151.78;;;10.78;52.60
59493;BME280;45497;43.996;22.876;2022-10-16T03:53:34;102136.97;;;10.66;52.42
59493;BME280;45497;43.996;22.876;2022-10-16T03:56:00;102149.25;;;10.67;52.29
59493;BME280;45497;43.996;22.876;2022-10-16T03:58:25;102148.97;;;10.60;52.58
59493;BME280;45497;43.996;22.876;2022-10-16T04:00:51;102156.78;;;10.62;53.12
59493;BME280;45497;43.996;22.876;2022-10-16T04:03:16;102151.75;;;10.59;52.92
59493;BME280;45497;43.996;22.876;2022-10-16T04:05:58;102155.69;;;10.64;52.85
59493;BME280;45497;43.996;22.876;2022-10-16T04:08:24;102155.53;;;10.66;53.02
59493;BME280;45497;43.996;22.876;2022-10-16T04:12:02;102152.47;;;10.61;52.98
59493;BME280;45497;43.996;22.876;2022-10-16T04:14:28;102149.66;;;10.62;52.90
59493;BME280;45497;43.996;22.876;2022-10-16T04:16:53;102150.06;;;10.58;52.57
59493;BME280;45497;43.996;22.876;2022-10-16T04:19:19;102152.47;;;10.61;52.93
59493;BME280;45497;43.996;22.876;2022-10-16T04:21:44;102144.91;;;10.56;52.35
59493;BME280;45497;43.996;22.876;2022-10-16T04:24:10;102158.88;;;10.58;52.83
59493;BME280;45497;43.996;22.876;2022-10-16T04:26:36;102156.06;;;10.60;52.52
59493;BME280;45497;43.996;22.876;2022-10-16T04:29:02;102159.13;;;10.55;52.71
59493;BME280;45497;43.996;22.876;2022-10-16T04:31:28;102167.25;;;10.54;52.60
59493;BME280;45497;43.996;22.876;2022-10-16T04:33:53;102169.03;;;10.53;52.57
59493;BME280;45497;43.996;22.876;2022-10-16T04:36:19;102170.00;;;10.52;52.32
59493;BME280;45497;43.996;22.876;2022-10-16T04:38:44;102165.09;;;10.47;52.08
59493;BME280;45497;43.996;22.876;2022-10-16T04:41:10;102166.66;;;10.50;52.49
59493;BME280;45497;43.996;22.876;2022-10-16T04:43:35;102168.63;;;10.48;52.33
59493;BME280;45497;43.996;22.876;2022-10-16T04:46:00;102167.06;;;10.45;52.30
59493;BME280;45497;43.996;22.876;2022-10-16T04:48:27;102169.25;;;10.40;51.97
59493;BME280;45497;43.996;22.876;2022-10-16T04:50:52;102169.25;;;10.40;52.26
59493;BME280;45497;43.996;22.876;2022-10-16T04:53:18;102172.91;;;10.39;52.38
59493;BME280;45497;43.996;22.876;2022-10-16T04:55:43;102176.50;;;10.38;51.99
59493;BME280;45497;43.996;22.876;2022-10-16T04:58:09;102180.72;;;10.41;51.97
59493;BME280;45497;43.996;22.876;2022-10-16T05:00:34;102180.88;;;10.49;52.18
59493;BME280;45497;43.996;22.876;2022-10-16T05:03:00;102174.19;;;10.55;51.72
59493;BME280;45497;43.996;22.876;2022-10-16T05:05:27;102181.63;;;10.61;51.75
59493;BME280;45497;43.996;22.876;2022-10-16T05:07:53;102187.34;;;10.66;51.50
59493;BME280;45497;43.996;22.876;2022-10-16T05:10:19;102186.00;;;10.71;51.36
59493;BME280;45497;43.996;22.876;2022-10-16T05:12:44;102191.72;;;10.77;51.25
59493;BME280;45497;43.996;22.876;2022-10-16T05:15:10;102197.19;;;10.85;51.47
59493;BME280;45497;43.996;22.876;2022-10-16T05:19:32;102208.13;;;11.01;51.23
59493;BME280;45497;43.996;22.876;2022-10-16T05:21:57;102210.53;;;11.14;50.62
59493;BME280;45497;43.996;22.876;2022-10-16T05:24:23;102213.09;;;11.25;50.52
59493;BME280;45497;43.996;22.876;2022-10-16T05:26:49;102216.16;;;11.40;50.31
59493;BME280;45497;43.996;22.876;2022-10-16T05:29:15;102224.41;;;11.57;50.04
59493;BME280;45497;43.996;22.876;2022-10-16T05:31:40;102219.97;;;11.67;49.44
59493;BME280;45497;43.996;22.876;2022-10-16T05:34:06;102232.69;;;11.83;49.32
59493;BME280;45497;43.996;22.876;2022-10-16T05:38:38;102221.75;;;11.86;48.78
59493;BME280;45497;43.996;22.876;2022-10-16T05:41:05;102221.47;;;11.89;48.72
59493;BME280;45497;43.996;22.876;2022-10-16T05:43:31;102223.16;;;11.90;48.81
59493;BME280;45497;43.996;22.876;2022-10-16T05:46:03;102229.47;;;12.09;48.49
59493;BME280;45497;43.996;22.876;2022-10-16T05:48:29;102242.44;;;12.21;48.33
59493;BME280;45497;43.996;22.876;2022-10-16T05:51:10;102237.22;;;12.30;48.32
59493;BME280;45497;43.996;22.876;2022-10-16T05:53:37;102244.19;;;12.50;48.11
59493;BME280;45497;43.996;22.876;2022-10-16T05:56:03;102238.97;;;12.58;47.88
59493;BME280;45497;43.996;22.876;2022-10-16T05:58:31;102243.94;;;12.81;47.74
59493;BME280;45497;43.996;22.876;2022-10-16T06:01:06;102247.31;;;13.01;47.16
59493;BME280;45497;43.996;22.876;2022-10-16T06:03:33;102248.25;;;13.10;47.08
59493;BME280;45497;43.996;22.876;2022-10-16T06:05:59;102256.69;;;13.05;46.84
59493;BME280;45497;43.996;22.876;2022-10-16T06:08:24;102259.84;;;13.18;46.96
59493;BME280;45497;43.996;22.876;2022-10-16T06:11:19;102261.28;;;13.41;46.40
59493;BME280;45497;43.996;22.876;2022-10-16T06:13:44;102255.56;;;13.53;46.85
59493;BME280;45497;43.996;22.876;2022-10-16T06:16:11;102255.34;;;13.65;46.62
59493;BME280;45497;43.996;22.876;2022-10-16T06:18:38;102259.84;;;13.82;46.37
59493;BME280;45497;43.996;22.876;2022-10-16T06:21:12;102267.78;;;13.92;46.26
59493;BME280;45497;43.996;22.876;2022-10-16T06:23:37;102261.28;;;13.94;46.00
59493;BME280;45497;43.996;22.876;2022-10-16T06:26:11;102258.16;;;13.99;46.75
59493;BME280;45497;43.996;22.876;2022-10-16T06:28:38;102276.00;;;14.25;47.09
59493;BME280;45497;43.996;22.876;2022-10-16T06:31:05;102268.16;;;14.23;46.69
59493;BME280;45497;43.996;22.876;2022-10-16T06:35:16;102277.56;;;14.09;47.16
59493;BME280;45497;43.996;22.876;2022-10-16T06:37:42;102283.75;;;14.10;47.05
59493;BME280;45497;43.996;22.876;2022-10-16T06:40:07;102298.44;;;14.14;47.05
59493;BME280;45497;43.996;22.876;2022-10-16T06:43:21;102292.91;;;14.33;47.01
59493;BME280;45497;43.996;22.876;2022-10-16T06:45:54;102297.38;;;14.33;46.87
59493;BME280;45497;43.996;22.876;2022-10-16T06:48:21;102304.31;;;14.44;46.93
59493;BME280;45497;43.996;22.876;2022-10-16T06:53:30;102293.38;;;14.55;46.65
59493;BME280;45497;43.996;22.876;2022-10-16T06:55:56;102302.13;;;14.65;46.50
59493;BME280;45497;43.996;22.876;2022-10-16T06:58:22;102294.81;;;14.67;46.80
59493;BME280;45497;43.996;22.876;2022-10-16T07:00:48;102307.03;;;14.78;47.21
59493;BME280;45497;43.996;22.876;2022-10-16T07:03:14;102310.50;;;14.70;47.14
59493;BME280;45497;43.996;22.876;2022-10-16T07:05:52;102312.97;;;14.64;47.60
59493;BME280;45497;43.996;22.876;2022-10-16T07:08:17;102312.44;;;14.60;47.62
59493;BME280;45497;43.996;22.876;2022-10-16T07:10:43;102314.34;;;14.68;47.41
59493;BME280;45497;43.996;22.876;2022-10-16T07:13:08;102311.03;;;14.74;47.31
59493;BME280;45497;43.996;22.876;2022-10-16T07:15:33;102305.03;;;14.72;47.47
59493;BME280;45497;43.996;22.876;2022-10-16T07:17:59;102301.81;;;14.68;47.33
59493;BME280;45497;43.996;22.876;2022-10-16T07:20:25;102301.69;;;14.70;47.71
59493;BME280;45497;43.996;22.876;2022-10-16T07:22:51;102311.25;;;14.81;47.60
59493;BME280;45497;43.996;22.876;2022-10-16T07:25:17;102316.88;;;14.78;47.41
59493;BME280;45497;43.996;22.876;2022-10-16T07:27:43;102307.84;;;14.70;47.83
59493;BME280;45497;43.996;22.876;2022-10-16T07:30:09;102307.78;;;14.88;48.02
59493;BME280;45497;43.996;22.876;2022-10-16T07:32:34;102306.97;;;14.96;47.10
59493;BME280;45497;43.996;22.876;2022-10-16T07:37:03;102304.09;;;15.24;46.88
59493;BME280;45497;43.996;22.876;2022-10-16T07:41:22;102306.75;;;15.24;46.47
59493;BME280;45497;43.996;22.876;2022-10-16T07:43:52;102303.94;;;15.34;46.52
59493;BME280;45497;43.996;22.876;2022-10-16T07:46:19;102308.66;;;15.48;46.50
59493;BME280;45497;43.996;22.876;2022-10-16T07:48:46;102310.16;;;15.42;46.32
59493;BME280;45497;43.996;22.876;2022-10-16T07:51:14;102310.19;;;15.51;45.98
59493;BME280;45497;43.996;22.876;2022-10-16T07:53:40;102320.09;;;15.66;45.75
59493;BME280;45497;43.996;22.876;2022-10-16T07:56:06;102324.31;;;15.85;45.14
59493;BME280;45497;43.996;22.876;2022-10-16T07:58:33;102322.47;;;15.78;45.17
59493;BME280;45497;43.996;22.876;2022-10-16T08:01:03;102332.94;;;15.71;45.07
59493;BME280;45497;43.996;22.876;2022-10-16T08:03:29;102332.25;;;15.61;45.36
59493;BME280;45497;43.996;22.876;2022-10-16T08:05:57;102335.41;;;15.56;45.57
59493;BME280;45497;43.996;22.876;2022-10-16T08:08:23;102325.56;;;15.57;45.66
59493;BME280;45497;43.996;22.876;2022-10-16T08:10:48;102331.91;;;15.64;45.31
59493;BME280;45497;43.996;22.876;2022-10-16T08:13:15;102335.47;;;15.81;45.41
59493;BME280;45497;43.996;22.876;2022-10-16T08:15:41;102322.81;;;15.91;44.79
59493;BME280;45497;43.996;22.876;2022-10-16T08:18:08;102327.00;;;16.02;44.95
59493;BME280;45497;43.996;22.876;2022-10-16T08:20:34;102325.97;;;16.11;44.81
59493;BME280;45497;43.996;22.876;2022-10-16T08:23:00;102324.97;;;16.20;44.30
59493;BME280;45497;43.996;22.876;2022-10-16T08:25:26;102324.50;;;16.33;44.12
59493;BME280;45497;43.996;22.876;2022-10-16T08:27:52;102326.00;;;16.44;43.94
59493;BME280;45497;43.996;22.876;2022-10-16T08:30:19;102331.47;;;16.51;43.68
59493;BME280;45497;43.996;22.876;2022-10-16T08:32:45;102334.38;;;16.24;44.32
59493;BME280;45497;43.996;22.876;2022-10-16T08:35:11;102330.84;;;16.32;44.17
59493;BME280;45497;43.996;22.876;2022-10-16T08:37:38;102334.88;;;16.28;44.34
59493;BME280;45497;43.996;22.876;2022-10-16T08:40:05;102329.66;;;16.35;44.02
59493;BME280;45497;43.996;22.876;2022-10-16T08:45:08;102345.56;;;16.44;43.94
59493;BME280;45497;43.996;22.876;2022-10-16T08:50:28;102351.59;;;16.30;44.00
59493;BME280;45497;43.996;22.876;2022-10-16T08:52:55;102352.72;;;16.28;44.17
59493;BME280;45497;43.996;22.876;2022-10-16T08:57:59;102348.72;;;16.40;44.04
59493;BME280;45497;43.996;22.876;2022-10-16T09:00:26;102341.19;;;16.43;44.00
59493;BME280;45497;43.996;22.876;2022-10-16T09:09:10;102344.16;;;16.65;43.68
59493;BME280;45497;43.996;22.876;2022-10-16T09:23:17;102346.50;;;16.85;43.18
59493;BME280;45497;43.996;22.876;2022-10-16T09:25:45;102339.31;;;16.85;43.42
59493;BME280;45497;43.996;22.876;2022-10-16T09:28:13;102339.81;;;16.80;43.63
59493;BME280;45497;43.996;22.876;2022-10-16T09:30:38;102335.09;;;16.82;43.57
59493;BME280;45497;43.996;22.876;2022-10-16T09:33:05;102331.41;;;16.92;43.23
59493;BME280;45497;43.996;22.876;2022-10-16T09:35:36;102334.53;;;17.12;43.26
59493;BME280;45497;43.996;22.876;2022-10-16T09:39:44;102328.28;;;17.28;42.71
59493;BME280;45497;43.996;22.876;2022-10-16T09:42:15;102326.63;;;17.18;42.99
59493;BME280;45497;43.996;22.876;2022-10-16T09:47:12;102321.09;;;17.20;42.99
59493;BME280;45497;43.996;22.876;2022-10-16T09:49:50;102329.09;;;17.28;42.86
59493;BME280;45497;43.996;22.876;2022-10-16T09:52:18;102326.38;;;17.36;42.64
59493;BME280;45497;43.996;22.876;2022-10-16T09:54:54;102332.09;;;17.33;42.87
59493;BME280;45497;43.996;22.876;2022-10-16T09:57:20;102338.66;;;17.31;43.02
59493;BME280;45497;43.996;22.876;2022-10-16T09:59:51;102333.13;;;17.32;42.91
59493;BME280;45497;43.996;22.876;2022-10-16T10:02:20;102322.00;;;17.44;42.70
59493;BME280;45497;43.996;22.876;2022-10-16T10:04:52;102316.09;;;17.48;42.70
59493;BME280;45497;43.996;22.876;2022-10-16T10:07:33;102316.09;;;17.48;42.54
59493;BME280;45497;43.996;22.876;2022-10-16T10:10:03;102318.75;;;17.48;42.56
59493;BME280;45497;43.996;22.876;2022-10-16T10:12:31;102307.13;;;17.33;42.54
59493;BME280;45497;43.996;22.876;2022-10-16T10:17:31;102311.34;;;17.58;42.23
59493;BME280;45497;43.996;22.876;2022-10-16T10:19:58;102305.16;;;17.58;41.91
59493;BME280;45497;43.996;22.876;2022-10-16T10:43:10;102278.56;;;18.18;40.44
59493;BME280;45497;43.996;22.876;2022-10-16T10:45:46;102269.69;;;18.17;40.09
59493;BME280;45497;43.996;22.876;2022-10-16T10:48:15;102278.41;;;18.34;40.20
59493;BME280;45497;43.996;22.876;2022-10-16T10:50:54;102271.00;;;18.51;39.82
59493;BME280;45497;43.996;22.876;2022-10-16T10:53:36;102277.41;;;18.50;39.31
59493;BME280;45497;43.996;22.876;2022-10-16T11:02:24;102260.00;;;18.61;38.90
59493;BME280;45497;43.996;22.876;2022-10-16T11:09:51;102259.91;;;18.84;37.97
59493;BME280;45497;43.996;22.876;2022-10-16T11:12:25;102246.09;;;18.87;38.04
59493;BME280;45497;43.996;22.876;2022-10-16T11:15:02;102244.25;;;18.87;37.52
59493;BME280;45497;43.996;22.876;2022-10-16T11:17:35;102241.75;;;18.86;37.33
59493;BME280;45497;43.996;22.876;2022-10-16T11:23:16;102240.34;;;18.90;36.67
59493;BME280;45497;43.996;22.876;2022-10-16T11:25:46;102239.03;;;19.01;36.51
59493;BME280;45497;43.996;22.876;2022-10-16T11:30:16;102250.81;;;19.00;36.01
59493;BME280;45497;43.996;22.876;2022-10-16T11:33:04;102243.41;;;19.02;35.58
59493;BME280;45497;43.996;22.876;2022-10-16T11:37:37;102234.47;;;19.16;35.59
59493;BME280;45497;43.996;22.876;2022-10-16T11:40:32;102230.09;;;19.15;35.65
59493;BME280;45497;43.996;22.876;2022-10-16T11:43:26;102232.78;;;19.15;34.96
59493;BME280;45497;43.996;22.876;2022-10-16T11:45:55;102234.91;;;19.20;34.81
59493;BME280;45497;43.996;22.876;2022-10-16T11:48:53;102229.13;;;19.23;35.17
59493;BME280;45497;43.996;22.876;2022-10-16T11:51:42;102233.59;;;19.31;34.64
59493;BME280;45497;43.996;22.876;2022-10-16T11:54:18;102235.81;;;19.27;34.25
59493;BME280;45497;43.996;22.876;2022-10-16T11:56:50;102230.63;;;19.25;34.53
59493;BME280;45497;43.996;22.876;2022-10-16T11:59:51;102230.50;;;19.34;34.61
59493;BME280;45497;43.996;22.876;2022-10-16T12:07:24;102235.31;;;19.38;34.71
59493;BME280;45497;43.996;22.876;2022-10-16T12:09:53;102217.25;;;19.32;34.40
59493;BME280;45497;43.996;22.876;2022-10-16T12:12:37;102227.88;;;19.40;34.47
59493;BME280;45497;43.996;22.876;2022-10-16T12:17:38;102229.84;;;19.53;34.48
59493;BME280;45497;43.996;22.876;2022-10-16T12:22:54;102223.28;;;19.56;34.35
59493;BME280;45497;43.996;22.876;2022-10-16T12:25:30;102219.53;;;19.57;34.29
59493;BME280;45497;43.996;22.876;2022-10-16T12:28:05;102228.50;;;19.64;33.99
59493;BME280;45497;43.996;22.876;2022-10-16T12:30:34;102222.88;;;19.59;33.78
59493;BME280;45497;43.996;22.876;2022-10-16T12:35:46;102210.03;;;19.54;33.78
59493;BME280;45497;43.996;22.876;2022-10-16T12:38:20;102210.91;;;19.61;33.79
59493;BME280;45497;43.996;22.876;2022-10-16T12:40:56;102199.38;;;19.67;33.94
59493;BME280;45497;43.996;22.876;2022-10-16T12:43:42;102205.84;;;19.73;33.83
59493;BME280;45497;43.996;22.876;2022-10-16T12:48:34;102203.91;;;19.67;33.63
59493;BME280;45497;43.996;22.876;2022-10-16T12:51:22;102199.06;;;19.77;33.74
59493;BME280;45497;43.996;22.876;2022-10-16T12:53:59;102198.28;;;19.83;33.77
59493;BME280;45497;43.996;22.876;2022-10-16T13:11:03;102204.31;;;19.85;33.38
59493;BME280;45497;43.996;22.876;2022-10-16T13:13:46;102191.22;;;19.82;33.25
59493;BME280;45497;43.996;22.876;2022-10-16T13:16:29;102197.91;;;19.86;33.27
59493;BME280;45497;43.996;22.876;2022-10-16T13:21:56;102203.13;;;19.95;33.39
59493;BME280;45497;43.996;22.876;2022-10-16T13:26:52;102205.88;;;20.01;32.76
59493;BME280;45497;43.996;22.876;2022-10-16T13:29:20;102201.91;;;19.97;32.62
59493;BME280;45497;43.996;22.876;2022-10-16T13:31:46;102203.75;;;19.97;32.78
59493;BME280;45497;43.996;22.876;2022-10-16T13:34:18;102208.94;;;19.98;33.02
59493;BME280;45497;43.996;22.876;2022-10-16T13:36:50;102209.56;;;20.00;32.97
59493;BME280;45497;43.996;22.876;2022-10-16T13:39:20;102210.81;;;19.98;32.96
59493;BME280;45497;43.996;22.876;2022-10-16T13:44:26;102206.06;;;20.00;33.07
59493;BME280;45497;43.996;22.876;2022-10-16T13:47:25;102207.75;;;20.08;33.14
59493;BME280;45497;43.996;22.876;2022-10-16T13:50:12;102220.44;;;20.14;32.86
59493;BME280;45497;43.996;22.876;2022-10-16T13:52:38;102206.56;;;20.10;32.50
59493;BME280;45497;43.996;22.876;2022-10-16T13:55:24;102214.19;;;20.07;32.88
59493;BME280;45497;43.996;22.876;2022-10-16T13:57:49;102209.44;;;20.09;32.94
59493;BME280;45497;43.996;22.876;2022-10-16T14:00:23;102212.97;;;20.09;33.25
59493;BME280;45497;43.996;22.876;2022-10-16T14:02:58;102223.09;;;20.07;33.02
59493;BME280;45497;43.996;22.876;2022-10-16T14:05:26;102226.41;;;20.09;32.75
59493;BME280;45497;43.996;22.876;2022-10-16T14:07:52;102220.22;;;20.09;32.85
59493;BME280;45497;43.996;22.876;2022-10-16T14:10:28;102223.16;;;20.14;32.60
59493;BME280;45497;43.996;22.876;2022-10-16T14:13:06;102216.50;;;20.10;32.58
59493;BME280;45497;43.996;22.876;2022-10-16T14:15:34;102217.50;;;20.09;32.74
59493;BME280;45497;43.996;22.876;2022-10-16T14:18:00;102217.75;;;20.14;32.91
59493;BME280;45497;43.996;22.876;2022-10-16T14:20:29;102224.22;;;20.19;32.91
59493;BME280;45497;43.996;22.876;2022-10-16T14:23:28;102224.41;;;20.18;32.86
59493;BME280;45497;43.996;22.876;2022-10-16T14:25:49;102230.19;;;20.15;33.02
59493;BME280;45497;43.996;22.876;2022-10-16T14:28:16;102231.59;;;20.11;33.01
59493;BME280;45497;43.996;22.876;2022-10-16T14:30:50;102220.00;;;20.10;33.18
59493;BME280;45497;43.996;22.876;2022-10-16T14:38:35;102221.63;;;20.04;33.87
59493;BME280;45497;43.996;22.876;2022-10-16T14:41:03;102225.59;;;20.09;33.90
59493;BME280;45497;43.996;22.876;2022-10-16T14:45:08;102225.84;;;20.14;33.71
59493;BME280;45497;43.996;22.876;2022-10-16T14:47:37;102223.53;;;20.11;33.85
59493;BME280;45497;43.996;22.876;2022-10-16T14:50:13;102225.41;;;20.10;33.87
59493;BME280;45497;43.996;22.876;2022-10-16T14:52:38;102232.22;;;20.06;34.01
59493;BME280;45497;43.996;22.876;2022-10-16T14:55:04;102222.22;;;20.00;34.41
59493;BME280;45497;43.996;22.876;2022-10-16T14:57:33;102231.78;;;20.02;34.46
59493;BME280;45497;43.996;22.876;2022-10-16T14:59:59;102226.53;;;19.94;34.49
59493;BME280;45497;43.996;22.876;2022-10-16T15:02:29;102237.41;;;19.86;34.60
59493;BME280;45497;43.996;22.876;2022-10-16T15:04:55;102224.56;;;19.81;34.57
59493;BME280;45497;43.996;22.876;2022-10-16T15:07:21;102232.44;;;19.83;34.71
59493;BME280;45497;43.996;22.876;2022-10-16T15:09:47;102232.63;;;19.81;34.62
59493;BME280;45497;43.996;22.876;2022-10-16T15:12:12;102241.16;;;19.85;34.74
59493;BME280;45497;43.996;22.876;2022-10-16T15:14:38;102238.47;;;19.85;34.75
59493;BME280;45497;43.996;22.876;2022-10-16T15:17:04;102239.88;;;19.81;34.63
59493;BME280;45497;43.996;22.876;2022-10-16T15:19:29;102247.88;;;19.74;34.85
59493;BME280;45497;43.996;22.876;2022-10-16T15:22:10;102246.03;;;19.75;34.90
59493;BME280;45497;43.996;22.876;2022-10-16T15:24:36;102243.72;;;19.72;35.04
59493;BME280;45497;43.996;22.876;2022-10-16T15:27:02;102248.66;;;19.68;35.38
59493;BME280;45497;43.996;22.876;2022-10-16T15:29:28;102248.19;;;19.64;35.27
59493;BME280;45497;43.996;22.876;2022-10-16T15:32:17;102256.00;;;19.59;35.55
59493;BME280;45497;43.996;22.876;2022-10-16T15:34:43;102259.72;;;19.58;35.81
59493;BME280;45497;43.996;22.876;2022-10-16T15:37:08;102260.88;;;19.49;35.79
59493;BME280;45497;43.996;22.876;2022-10-16T15:39:34;102254.47;;;19.50;35.84
59493;BME280;45497;43.996;22.876;2022-10-16T15:41:59;102260.97;;;19.41;35.98
59493;BME280;45497;43.996;22.876;2022-10-16T15:44:25;102264.25;;;19.36;36.20
59493;BME280;45497;43.996;22.876;2022-10-16T15:46:55;102264.34;;;19.28;36.56
59493;BME280;45497;43.996;22.876;2022-10-16T15:49:20;102273.72;;;19.32;36.59
59493;BME280;45497;43.996;22.876;2022-10-16T15:51:46;102268.09;;;19.27;36.70
59493;BME280;45497;43.996;22.876;2022-10-16T15:54:11;102268.09;;;19.27;36.82